sensor_id;sensor_type;location;lat;lon;timestamp;temperature;humidity
16271;DHT22;8243;49.048;8.396;2022-11-18T00:01:08;9.20;99.90
16271;DHT22;8243;49.048;8.396;2022-11-18T00:03:34;9.10;99.90
16271;DHT22;8243;49.048;8.396;2022-11-18T00:06:00;9.20;99.90
16271;DHT22;8243;49.048;8.396;2022-11-18T00:08:26;9.20;99.90
16271;DHT22;8243;49.048;8.396;2022-11-18T00:10:51;9.30;99.90
16271;DHT22;8243;49.048;8.396;2022-11-18T00:13:18;9.30;99.90
16271;DHT22;8243;49.048;8.396;2022-11-18T00:16:10;9.30;99.90
16271;DHT22;8243;49.048;8.396;2022-11-18T00:18:37;9.30;99.90
16271;DHT22;8243;49.048;8.396;2022-11-18T00:21:10;9.30;99.90
16271;DHT22;8243;49.048;8.396;2022-11-18T00:23:36;9.30;99.90
16271;DHT22;8243;49.048;8.396;2022-11-18T00:26:07;9.30;99.90
16271;DHT22;8243;49.048;8.396;2022-11-18T00:28:33;9.30;99.90
16271;DHT22;8243;49.048;8.396;2022-11-18T00:31:04;9.20;99.90
16271;DHT22;8243;49.048;8.396;2022-11-18T00:33:31;9.20;99.90
16271;DHT22;8243;49.048;8.396;2022-11-18T00:35:57;9.30;99.90
16271;DHT22;8243;49.048;8.396;2022-11-18T00:38:23;9.30;99.90
16271;DHT22;8243;49.048;8.396;2022-11-18T00:41:15;9.30;99.90
16271;DHT22;8243;49.048;8.396;2022-11-18T00:43:41;9.30;99.90
16271;DHT22;8243;49.048;8.396;2022-11-18T00:46:09;9.30;99.90
16271;DHT22;8243;49.048;8.396;2022-11-18T00:48:36;9.30;99.90
16271;DHT22;8243;49.048;8.396;2022-11-18T00:51:14;9.30;99.90
16271;DHT22;8243;49.048;8.396;2022-11-18T00:53:40;9.40;99.90
16271;DHT22;8243;49.048;8.396;2022-11-18T00:56:06;9.40;99.90
16271;DHT22;8243;49.048;8.396;2022-11-18T00:58:32;9.40;99.90
16271;DHT22;8243;49.048;8.396;2022-11-18T01:00:58;9.40;99.90
16271;DHT22;8243;49.048;8.396;2022-11-18T01:03:24;9.40;99.90
16271;DHT22;8243;49.048;8.396;2022-11-18T01:05:51;9.40;99.90
16271;DHT22;8243;49.048;8.396;2022-11-18T01:08:17;9.40;99.90
16271;DHT22;8243;49.048;8.396;2022-11-18T01:10:44;9.40;99.90
16271;DHT22;8243;49.048;8.396;2022-11-18T01:13:16;9.40;99.90
16271;DHT22;8243;49.048;8.396;2022-11-18T01:15:48;9.40;99.90
16271;DHT22;8243;49.048;8.396;2022-11-18T01:18:15;9.40;99.90
16271;DHT22;8243;49.048;8.396;2022-11-18T01:20:42;9.40;99.90
16271;DHT22;8243;49.048;8.396;2022-11-18T01:23:07;9.50;99.90
16271;DHT22;8243;49.048;8.396;2022-11-18T01:25:35;9.50;99.90
16271;DHT22;8243;49.048;8.396;2022-11-18T01:28:01;9.50;99.90
16271;DHT22;8243;49.048;8.396;2022-11-18T01:30:27;9.50;99.90
16271;DHT22;8243;49.048;8.396;2022-11-18T01:32:52;9.60;99.90
16271;DHT22;8243;49.048;8.396;2022-11-18T01:35:18;9.60;99.90
16271;DHT22;8243;49.048;8.396;2022-11-18T01:37:44;9.60;99.90
16271;DHT22;8243;49.048;8.396;2022-11-18T01:40:09;9.60;99.90
16271;DHT22;8243;49.048;8.396;2022-11-18T01:42:35;9.50;99.90
16271;DHT22;8243;49.048;8.396;2022-11-18T01:45:06;9.60;99.90
16271;DHT22;8243;49.048;8.396;2022-11-18T01:47:39;9.60;99.90
16271;DHT22;8243;49.048;8.396;2022-11-18T01:50:06;9.60;99.90
16271;DHT22;8243;49.048;8.396;2022-11-18T01:52:33;9.60;99.90
16271;DHT22;8243;49.048;8.396;2022-11-18T01:55:05;9.60;99.90
16271;DHT22;8243;49.048;8.396;2022-11-18T01:57:31;9.60;99.90
16271;DHT22;8243;49.048;8.396;2022-11-18T02:00:00;9.70;99.90
16271;DHT22;8243;49.048;8.396;2022-11-18T02:02:30;9.70;99.90
16271;DHT22;8243;49.048;8.396;2022-11-18T02:04:57;9.60;99.90
16271;DHT22;8243;49.048;8.396;2022-11-18T02:07:23;9.60;99.90
16271;DHT22;8243;49.048;8.396;2022-11-18T02:09:50;9.60;99.90
16271;DHT22;8243;49.048;8.396;2022-11-18T02:12:17;9.60;99.90
16271;DHT22;8243;49.048;8.396;2022-11-18T02:14:45;9.50;99.90
16271;DHT22;8243;49.048;8.396;2022-11-18T02:30:43;9.40;99.90
16271;DHT22;8243;49.048;8.396;2022-11-18T02:33:38;9.50;99.90
16271;DHT22;8243;49.048;8.396;2022-11-18T02:36:15;9.50;99.90
16271;DHT22;8243;49.048;8.396;2022-11-18T02:38:49;9.50;99.90
16271;DHT22;8243;49.048;8.396;2022-11-18T02:41:20;9.50;99.90
16271;DHT22;8243;49.048;8.396;2022-11-18T02:43:51;9.50;99.90
16271;DHT22;8243;49.048;8.396;2022-11-18T02:46:34;9.50;99.90
16271;DHT22;8243;49.048;8.396;2022-11-18T02:49:04;9.50;99.90
16271;DHT22;8243;49.048;8.396;2022-11-18T02:51:32;9.60;99.90
16271;DHT22;8243;49.048;8.396;2022-11-18T02:54:03;9.50;99.90
16271;DHT22;8243;49.048;8.396;2022-11-18T02:56:30;9.50;99.90
16271;DHT22;8243;49.048;8.396;2022-11-18T02:58:57;9.50;99.90
16271;DHT22;8243;49.048;8.396;2022-11-18T03:01:25;9.50;99.90
16271;DHT22;8243;49.048;8.396;2022-11-18T03:03:52;9.50;99.90
16271;DHT22;8243;49.048;8.396;2022-11-18T03:06:27;9.50;99.90
16271;DHT22;8243;49.048;8.396;2022-11-18T03:11:35;9.40;99.90
16271;DHT22;8243;49.048;8.396;2022-11-18T03:16:44;9.40;99.90
16271;DHT22;8243;49.048;8.396;2022-11-18T03:19:28;9.40;99.90
16271;DHT22;8243;49.048;8.396;2022-11-18T03:22:13;9.40;99.90
16271;DHT22;8243;49.048;8.396;2022-11-18T03:24:46;9.40;99.90
16271;DHT22;8243;49.048;8.396;2022-11-18T03:27:59;9.40;99.90
16271;DHT22;8243;49.048;8.396;2022-11-18T03:30:29;9.40;99.90
16271;DHT22;8243;49.048;8.396;2022-11-18T03:33:01;9.40;99.90
16271;DHT22;8243;49.048;8.396;2022-11-18T03:35:31;9.40;99.90
16271;DHT22;8243;49.048;8.396;2022-11-18T03:38:20;9.30;99.90
16271;DHT22;8243;49.048;8.396;2022-11-18T03:40:53;9.30;99.90
16271;DHT22;8243;49.048;8.396;2022-11-18T03:43:23;9.40;99.90
16271;DHT22;8243;49.048;8.396;2022-11-18T03:45:56;9.30;99.90
16271;DHT22;8243;49.048;8.396;2022-11-18T03:48:26;9.30;99.90
16271;DHT22;8243;49.048;8.396;2022-11-18T03:50:59;9.30;99.90
16271;DHT22;8243;49.048;8.396;2022-11-18T03:53:29;9.30;99.90
16271;DHT22;8243;49.048;8.396;2022-11-18T03:56:02;9.30;99.90
16271;DHT22;8243;49.048;8.396;2022-11-18T03:58:33;9.30;99.90
16271;DHT22;8243;49.048;8.396;2022-11-18T04:01:08;9.20;99.90
16271;DHT22;8243;49.048;8.396;2022-11-18T04:03:35;9.20;99.90
16271;DHT22;8243;49.048;8.396;2022-11-18T04:06:11;9.20;99.90
16271;DHT22;8243;49.048;8.396;2022-11-18T04:08:42;9.20;99.90
16271;DHT22;8243;49.048;8.396;2022-11-18T04:11:23;9.20;99.90
16271;DHT22;8243;49.048;8.396;2022-11-18T04:14:10;9.20;99.90
16271;DHT22;8243;49.048;8.396;2022-11-18T04:16:41;9.20;99.90
16271;DHT22;8243;49.048;8.396;2022-11-18T04:19:07;9.20;99.90
16271;DHT22;8243;49.048;8.396;2022-11-18T04:21:33;9.20;99.90
16271;DHT22;8243;49.048;8.396;2022-11-18T04:23:58;9.20;99.90
16271;DHT22;8243;49.048;8.396;2022-11-18T04:26:24;9.20;99.90
16271;DHT22;8243;49.048;8.396;2022-11-18T04:28:49;9.20;99.90
16271;DHT22;8243;49.048;8.396;2022-11-18T04:31:15;9.20;99.90
16271;DHT22;8243;49.048;8.396;2022-11-18T04:33:40;9.20;99.90
16271;DHT22;8243;49.048;8.396;2022-11-18T04:36:06;9.20;99.90
16271;DHT22;8243;49.048;8.396;2022-11-18T04:38:32;9.20;99.90
16271;DHT22;8243;49.048;8.396;2022-11-18T04:40:57;9.20;99.90
16271;DHT22;8243;49.048;8.396;2022-11-18T04:43:23;9.10;99.90
16271;DHT22;8243;49.048;8.396;2022-11-18T04:45:48;9.10;99.90
16271;DHT22;8243;49.048;8.396;2022-11-18T04:48:14;9.10;99.90
16271;DHT22;8243;49.048;8.396;2022-11-18T04:50:40;9.10;99.90
16271;DHT22;8243;49.048;8.396;2022-11-18T04:53:06;9.00;99.90
16271;DHT22;8243;49.048;8.396;2022-11-18T04:55:34;9.00;99.90
16271;DHT22;8243;49.048;8.396;2022-11-18T04:58:00;9.00;99.90
16271;DHT22;8243;49.048;8.396;2022-11-18T05:00:25;9.00;99.90
16271;DHT22;8243;49.048;8.396;2022-11-18T05:02:51;8.90;99.90
16271;DHT22;8243;49.048;8.396;2022-11-18T05:05:16;8.90;99.90
16271;DHT22;8243;49.048;8.396;2022-11-18T05:07:42;8.90;99.90
16271;DHT22;8243;49.048;8.396;2022-11-18T05:10:08;8.90;99.90
16271;DHT22;8243;49.048;8.396;2022-11-18T05:12:33;8.80;99.90
16271;DHT22;8243;49.048;8.396;2022-11-18T05:15:15;8.80;99.90
16271;DHT22;8243;49.048;8.396;2022-11-18T05:17:41;8.80;99.90
16271;DHT22;8243;49.048;8.396;2022-11-18T05:20:07;8.80;99.90
16271;DHT22;8243;49.048;8.396;2022-11-18T05:22:33;8.80;99.90
16271;DHT22;8243;49.048;8.396;2022-11-18T05:24:59;8.70;99.90
16271;DHT22;8243;49.048;8.396;2022-11-18T05:27:24;8.70;99.90
16271;DHT22;8243;49.048;8.396;2022-11-18T05:29:50;8.70;99.90
16271;DHT22;8243;49.048;8.396;2022-11-18T05:32:16;8.70;99.90
16271;DHT22;8243;49.048;8.396;2022-11-18T05:34:41;8.60;99.90
16271;DHT22;8243;49.048;8.396;2022-11-18T05:37:07;8.60;99.90
16271;DHT22;8243;49.048;8.396;2022-11-18T05:39:32;8.60;99.90
16271;DHT22;8243;49.048;8.396;2022-11-18T05:41:59;8.60;99.90
16271;DHT22;8243;49.048;8.396;2022-11-18T05:44:43;8.50;99.90
16271;DHT22;8243;49.048;8.396;2022-11-18T05:47:09;8.50;99.90
16271;DHT22;8243;49.048;8.396;2022-11-18T05:49:35;8.50;99.90
16271;DHT22;8243;49.048;8.396;2022-11-18T05:52:00;8.50;99.90
16271;DHT22;8243;49.048;8.396;2022-11-18T05:54:26;8.40;99.90
16271;DHT22;8243;49.048;8.396;2022-11-18T05:56:52;8.40;99.90
16271;DHT22;8243;49.048;8.396;2022-11-18T05:59:18;8.40;99.90
16271;DHT22;8243;49.048;8.396;2022-11-18T06:04:38;8.40;99.90
16271;DHT22;8243;49.048;8.396;2022-11-18T06:09:40;8.40;99.90
16271;DHT22;8243;49.048;8.396;2022-11-18T06:12:13;8.30;99.90
16271;DHT22;8243;49.048;8.396;2022-11-18T06:14:46;8.30;99.90
16271;DHT22;8243;49.048;8.396;2022-11-18T06:17:18;8.30;99.90
16271;DHT22;8243;49.048;8.396;2022-11-18T06:19:44;8.30;99.90
16271;DHT22;8243;49.048;8.396;2022-11-18T06:22:10;8.30;99.90
16271;DHT22;8243;49.048;8.396;2022-11-18T06:24:36;8.20;99.90
16271;DHT22;8243;49.048;8.396;2022-11-18T06:27:02;8.20;99.90
16271;DHT22;8243;49.048;8.396;2022-11-18T06:29:29;8.20;99.90
16271;DHT22;8243;49.048;8.396;2022-11-18T06:31:55;8.20;99.90
16271;DHT22;8243;49.048;8.396;2022-11-18T06:34:20;8.20;99.90
16271;DHT22;8243;49.048;8.396;2022-11-18T06:36:46;8.20;99.90
16271;DHT22;8243;49.048;8.396;2022-11-18T06:39:11;8.20;99.90
16271;DHT22;8243;49.048;8.396;2022-11-18T06:41:37;8.20;99.90
16271;DHT22;8243;49.048;8.396;2022-11-18T06:44:02;8.20;99.90
16271;DHT22;8243;49.048;8.396;2022-11-18T06:46:28;8.20;99.90
16271;DHT22;8243;49.048;8.396;2022-11-18T06:49:12;8.20;99.90
16271;DHT22;8243;49.048;8.396;2022-11-18T06:51:38;8.20;99.90
16271;DHT22;8243;49.048;8.396;2022-11-18T06:54:04;8.20;99.90
16271;DHT22;8243;49.048;8.396;2022-11-18T06:56:30;8.20;99.90
16271;DHT22;8243;49.048;8.396;2022-11-18T06:58:57;8.20;99.90
16271;DHT22;8243;49.048;8.396;2022-11-18T07:01:27;8.20;99.90
16271;DHT22;8243;49.048;8.396;2022-11-18T07:03:53;8.30;99.90
16271;DHT22;8243;49.048;8.396;2022-11-18T07:06:21;8.20;99.90
16271;DHT22;8243;49.048;8.396;2022-11-18T07:08:47;8.30;99.90
16271;DHT22;8243;49.048;8.396;2022-11-18T07:11:15;8.30;99.90
16271;DHT22;8243;49.048;8.396;2022-11-18T07:13:41;8.30;99.90
16271;DHT22;8243;49.048;8.396;2022-11-18T07:16:13;8.30;99.90
16271;DHT22;8243;49.048;8.396;2022-11-18T07:18:40;8.30;99.90
16271;DHT22;8243;49.048;8.396;2022-11-18T07:21:08;8.30;99.90
16271;DHT22;8243;49.048;8.396;2022-11-18T07:23:34;8.30;99.90
16271;DHT22;8243;49.048;8.396;2022-11-18T07:26:00;8.40;99.90
16271;DHT22;8243;49.048;8.396;2022-11-18T07:28:27;8.40;99.90
16271;DHT22;8243;49.048;8.396;2022-11-18T07:31:03;8.40;99.90
16271;DHT22;8243;49.048;8.396;2022-11-18T07:33:29;8.40;99.90
16271;DHT22;8243;49.048;8.396;2022-11-18T07:35:58;8.40;99.90
16271;DHT22;8243;49.048;8.396;2022-11-18T07:38:24;8.40;99.90
16271;DHT22;8243;49.048;8.396;2022-11-18T07:40:49;8.50;99.90
16271;DHT22;8243;49.048;8.396;2022-11-18T07:43:15;8.50;99.90
16271;DHT22;8243;49.048;8.396;2022-11-18T07:45:40;8.50;99.90
16271;DHT22;8243;49.048;8.396;2022-11-18T07:48:06;8.50;99.90
16271;DHT22;8243;49.048;8.396;2022-11-18T07:50:31;8.60;99.90
16271;DHT22;8243;49.048;8.396;2022-11-18T07:52:57;8.50;99.90
16271;DHT22;8243;49.048;8.396;2022-11-18T07:55:23;8.60;99.90
16271;DHT22;8243;49.048;8.396;2022-11-18T07:57:49;8.60;99.90
16271;DHT22;8243;49.048;8.396;2022-11-18T08:00:14;8.60;99.90
16271;DHT22;8243;49.048;8.396;2022-11-18T08:02:40;8.60;99.90
16271;DHT22;8243;49.048;8.396;2022-11-18T08:05:08;8.60;99.90
16271;DHT22;8243;49.048;8.396;2022-11-18T08:07:34;8.70;99.90
16271;DHT22;8243;49.048;8.396;2022-11-18T08:09:59;8.70;99.90
16271;DHT22;8243;49.048;8.396;2022-11-18T08:12:28;8.70;99.90
16271;DHT22;8243;49.048;8.396;2022-11-18T08:14:55;8.70;99.90
16271;DHT22;8243;49.048;8.396;2022-11-18T08:17:21;8.80;99.90
16271;DHT22;8243;49.048;8.396;2022-11-18T08:19:46;8.80;99.90
16271;DHT22;8243;49.048;8.396;2022-11-18T08:22:12;8.80;99.90
16271;DHT22;8243;49.048;8.396;2022-11-18T08:24:37;8.80;99.90
16271;DHT22;8243;49.048;8.396;2022-11-18T08:27:03;8.80;99.90
16271;DHT22;8243;49.048;8.396;2022-11-18T08:29:29;8.80;99.90
16271;DHT22;8243;49.048;8.396;2022-11-18T08:31:54;8.90;99.90
16271;DHT22;8243;49.048;8.396;2022-11-18T08:34:20;8.90;99.90
16271;DHT22;8243;49.048;8.396;2022-11-18T08:36:46;9.00;99.90
16271;DHT22;8243;49.048;8.396;2022-11-18T08:39:11;9.00;99.90
16271;DHT22;8243;49.048;8.396;2022-11-18T08:41:42;9.00;99.90
16271;DHT22;8243;49.048;8.396;2022-11-18T08:44:11;9.10;99.90
16271;DHT22;8243;49.048;8.396;2022-11-18T08:46:37;9.20;99.90
16271;DHT22;8243;49.048;8.396;2022-11-18T08:49:02;9.20;99.90
16271;DHT22;8243;49.048;8.396;2022-11-18T08:51:28;9.20;99.90
16271;DHT22;8243;49.048;8.396;2022-11-18T08:53:54;9.30;99.90
16271;DHT22;8243;49.048;8.396;2022-11-18T08:56:20;9.30;99.90
16271;DHT22;8243;49.048;8.396;2022-11-18T08:58:46;9.40;99.90
16271;DHT22;8243;49.048;8.396;2022-11-18T09:01:12;9.30;99.90
16271;DHT22;8243;49.048;8.396;2022-11-18T09:03:38;9.40;99.90
16271;DHT22;8243;49.048;8.396;2022-11-18T09:06:15;9.40;99.90
16271;DHT22;8243;49.048;8.396;2022-11-18T09:08:42;9.40;99.90
16271;DHT22;8243;49.048;8.396;2022-11-18T09:11:13;9.50;99.90
16271;DHT22;8243;49.048;8.396;2022-11-18T09:13:40;9.50;99.90
16271;DHT22;8243;49.048;8.396;2022-11-18T09:16:05;9.60;99.90
16271;DHT22;8243;49.048;8.396;2022-11-18T09:18:31;9.50;99.90
16271;DHT22;8243;49.048;8.396;2022-11-18T09:21:00;9.50;99.90
16271;DHT22;8243;49.048;8.396;2022-11-18T09:23:25;9.50;99.90
16271;DHT22;8243;49.048;8.396;2022-11-18T09:26:06;9.60;99.90
16271;DHT22;8243;49.048;8.396;2022-11-18T09:28:32;9.60;99.90
16271;DHT22;8243;49.048;8.396;2022-11-18T09:31:02;9.60;99.90
16271;DHT22;8243;49.048;8.396;2022-11-18T09:33:28;9.50;99.90
16271;DHT22;8243;49.048;8.396;2022-11-18T09:35:53;9.50;99.90
16271;DHT22;8243;49.048;8.396;2022-11-18T09:38:19;9.60;99.90
16271;DHT22;8243;49.048;8.396;2022-11-18T09:40:55;9.60;99.90
16271;DHT22;8243;49.048;8.396;2022-11-18T09:45:58;9.70;99.90
16271;DHT22;8243;49.048;8.396;2022-11-18T09:48:26;9.70;99.90
16271;DHT22;8243;49.048;8.396;2022-11-18T09:51:12;9.80;99.90
16271;DHT22;8243;49.048;8.396;2022-11-18T09:53:40;9.80;99.90
16271;DHT22;8243;49.048;8.396;2022-11-18T09:56:14;9.80;99.90
16271;DHT22;8243;49.048;8.396;2022-11-18T09:58:41;9.80;99.90
16271;DHT22;8243;49.048;8.396;2022-11-18T10:01:12;9.90;99.90
16271;DHT22;8243;49.048;8.396;2022-11-18T10:03:39;9.90;99.90
16271;DHT22;8243;49.048;8.396;2022-11-18T10:16:21;10.00;99.90
16271;DHT22;8243;49.048;8.396;2022-11-18T10:24:19;10.10;99.90
16271;DHT22;8243;49.048;8.396;2022-11-18T10:26:46;10.10;99.90
16271;DHT22;8243;49.048;8.396;2022-11-18T10:29:11;10.30;99.90
16271;DHT22;8243;49.048;8.396;2022-11-18T10:31:38;10.40;99.90
16271;DHT22;8243;49.048;8.396;2022-11-18T10:34:05;10.60;99.90
16271;DHT22;8243;49.048;8.396;2022-11-18T10:36:31;10.80;99.90
16271;DHT22;8243;49.048;8.396;2022-11-18T10:39:10;11.00;99.90
16271;DHT22;8243;49.048;8.396;2022-11-18T10:41:43;11.00;99.90
16271;DHT22;8243;49.048;8.396;2022-11-18T10:44:45;11.30;99.90
16271;DHT22;8243;49.048;8.396;2022-11-18T10:47:21;11.30;99.90
16271;DHT22;8243;49.048;8.396;2022-11-18T10:49:49;11.30;99.90
16271;DHT22;8243;49.048;8.396;2022-11-18T10:52:15;11.20;99.90
16271;DHT22;8243;49.048;8.396;2022-11-18T10:54:41;11.30;99.90
16271;DHT22;8243;49.048;8.396;2022-11-18T10:57:20;11.20;99.90
16271;DHT22;8243;49.048;8.396;2022-11-18T10:59:49;11.20;99.90
16271;DHT22;8243;49.048;8.396;2022-11-18T11:02:37;11.20;99.90
16271;DHT22;8243;49.048;8.396;2022-11-18T11:05:16;11.20;99.90
16271;DHT22;8243;49.048;8.396;2022-11-18T11:07:43;11.30;99.90
16271;DHT22;8243;49.048;8.396;2022-11-18T11:12:43;11.30;99.90
16271;DHT22;8243;49.048;8.396;2022-11-18T11:15:15;11.50;99.90
16271;DHT22;8243;49.048;8.396;2022-11-18T11:18:03;11.50;99.90
16271;DHT22;8243;49.048;8.396;2022-11-18T11:20:51;11.50;99.90
16271;DHT22;8243;49.048;8.396;2022-11-18T11:23:16;11.50;99.90
16271;DHT22;8243;49.048;8.396;2022-11-18T11:28:16;11.60;99.90
16271;DHT22;8243;49.048;8.396;2022-11-18T11:32:08;11.70;99.90
16271;DHT22;8243;49.048;8.396;2022-11-18T11:34:23;11.70;99.90
16271;DHT22;8243;49.048;8.396;2022-11-18T11:45:12;11.80;99.90
16271;DHT22;8243;49.048;8.396;2022-11-18T11:50:22;11.80;99.90
16271;DHT22;8243;49.048;8.396;2022-11-18T12:03:45;11.90;99.90
16271;DHT22;8243;49.048;8.396;2022-11-18T12:06:12;11.90;99.90
16271;DHT22;8243;49.048;8.396;2022-11-18T12:08:58;12.00;99.90
16271;DHT22;8243;49.048;8.396;2022-11-18T12:11:54;12.10;99.90
16271;DHT22;8243;49.048;8.396;2022-11-18T12:14:45;12.10;99.90
16271;DHT22;8243;49.048;8.396;2022-11-18T12:17:20;12.20;99.90
16271;DHT22;8243;49.048;8.396;2022-11-18T12:19:47;12.10;99.90
16271;DHT22;8243;49.048;8.396;2022-11-18T12:22:13;12.00;99.90
16271;DHT22;8243;49.048;8.396;2022-11-18T12:24:40;11.80;99.90
16271;DHT22;8243;49.048;8.396;2022-11-18T12:27:13;11.80;99.90
16271;DHT22;8243;49.048;8.396;2022-11-18T12:29:59;11.70;99.90
16271;DHT22;8243;49.048;8.396;2022-11-18T12:35:00;11.80;99.90
16271;DHT22;8243;49.048;8.396;2022-11-18T12:50:53;12.30;99.90
16271;DHT22;8243;49.048;8.396;2022-11-18T12:53:32;12.20;99.90
16271;DHT22;8243;49.048;8.396;2022-11-18T12:55:59;12.00;99.90
16271;DHT22;8243;49.048;8.396;2022-11-18T12:58:26;11.90;99.90
16271;DHT22;8243;49.048;8.396;2022-11-18T13:01:10;11.80;99.90
16271;DHT22;8243;49.048;8.396;2022-11-18T13:03:36;11.80;99.90
16271;DHT22;8243;49.048;8.396;2022-11-18T13:06:26;11.90;99.90
16271;DHT22;8243;49.048;8.396;2022-11-18T13:08:59;11.80;99.90
16271;DHT22;8243;49.048;8.396;2022-11-18T13:11:27;11.80;99.90
16271;DHT22;8243;49.048;8.396;2022-11-18T13:14:15;12.00;99.90
16271;DHT22;8243;49.048;8.396;2022-11-18T13:17:00;12.00;99.90
16271;DHT22;8243;49.048;8.396;2022-11-18T13:19:55;12.00;99.90
16271;DHT22;8243;49.048;8.396;2022-11-18T13:22:21;12.10;99.90
16271;DHT22;8243;49.048;8.396;2022-11-18T13:25:21;12.00;99.90
16271;DHT22;8243;49.048;8.396;2022-11-18T13:27:56;11.90;99.90
16271;DHT22;8243;49.048;8.396;2022-11-18T13:30:24;11.90;99.90
16271;DHT22;8243;49.048;8.396;2022-11-18T13:32:51;11.80;99.90
16271;DHT22;8243;49.048;8.396;2022-11-18T13:35:20;11.80;99.90
16271;DHT22;8243;49.048;8.396;2022-11-18T13:40:23;11.80;99.90
16271;DHT22;8243;49.048;8.396;2022-11-18T13:42:49;11.90;99.90
16271;DHT22;8243;49.048;8.396;2022-11-18T13:45:14;12.00;99.90
16271;DHT22;8243;49.048;8.396;2022-11-18T13:47:47;12.10;99.90
16271;DHT22;8243;49.048;8.396;2022-11-18T13:50:37;12.00;99.90
16271;DHT22;8243;49.048;8.396;2022-11-18T13:55:55;11.70;99.90
16271;DHT22;8243;49.048;8.396;2022-11-18T14:00:57;11.60;99.90
16271;DHT22;8243;49.048;8.396;2022-11-18T14:05:59;11.60;99.90
16271;DHT22;8243;49.048;8.396;2022-11-18T14:08:29;11.50;99.90
16271;DHT22;8243;49.048;8.396;2022-11-18T14:10:55;11.50;99.90
16271;DHT22;8243;49.048;8.396;2022-11-18T14:13:25;11.40;99.90
16271;DHT22;8243;49.048;8.396;2022-11-18T14:15:56;11.40;99.90
16271;DHT22;8243;49.048;8.396;2022-11-18T14:18:32;11.40;99.90
16271;DHT22;8243;49.048;8.396;2022-11-18T14:20:59;11.40;99.90
16271;DHT22;8243;49.048;8.396;2022-11-18T14:23:35;11.40;99.90
16271;DHT22;8243;49.048;8.396;2022-11-18T14:26:05;11.40;99.90
16271;DHT22;8243;49.048;8.396;2022-11-18T14:28:32;11.30;99.90
16271;DHT22;8243;49.048;8.396;2022-11-18T14:31:02;11.30;99.90
16271;DHT22;8243;49.048;8.396;2022-11-18T14:33:30;11.30;99.90
16271;DHT22;8243;49.048;8.396;2022-11-18T14:36:02;11.10;99.90
16271;DHT22;8243;49.048;8.396;2022-11-18T14:41:04;11.00;99.90
16271;DHT22;8243;49.048;8.396;2022-11-18T14:43:30;10.80;99.90
16271;DHT22;8243;49.048;8.396;2022-11-18T14:45:58;10.80;99.90
16271;DHT22;8243;49.048;8.396;2022-11-18T14:48:24;10.70;99.90
16271;DHT22;8243;49.048;8.396;2022-11-18T14:50:50;10.50;99.90
16271;DHT22;8243;49.048;8.396;2022-11-18T14:53:17;10.50;99.90
16271;DHT22;8243;49.048;8.396;2022-11-18T14:55:44;10.50;99.90
16271;DHT22;8243;49.048;8.396;2022-11-18T14:58:12;10.50;99.90
16271;DHT22;8243;49.048;8.396;2022-11-18T15:00:42;10.40;99.90
16271;DHT22;8243;49.048;8.396;2022-11-18T15:03:08;10.40;99.90
16271;DHT22;8243;49.048;8.396;2022-11-18T15:05:34;10.40;99.90
16271;DHT22;8243;49.048;8.396;2022-11-18T15:08:00;10.40;99.90
16271;DHT22;8243;49.048;8.396;2022-11-18T15:10:25;10.40;99.90
16271;DHT22;8243;49.048;8.396;2022-11-18T15:12:51;10.40;99.90
16271;DHT22;8243;49.048;8.396;2022-11-18T15:15:17;10.30;99.90
16271;DHT22;8243;49.048;8.396;2022-11-18T15:17:42;10.30;99.90
16271;DHT22;8243;49.048;8.396;2022-11-18T15:20:12;10.20;99.90
16271;DHT22;8243;49.048;8.396;2022-11-18T15:22:39;10.20;99.90
16271;DHT22;8243;49.048;8.396;2022-11-18T15:25:05;10.10;99.90
16271;DHT22;8243;49.048;8.396;2022-11-18T15:27:31;10.10;99.90
16271;DHT22;8243;49.048;8.396;2022-11-18T15:29:57;10.20;99.90
16271;DHT22;8243;49.048;8.396;2022-11-18T15:32:22;10.20;99.90
16271;DHT22;8243;49.048;8.396;2022-11-18T15:34:48;10.20;99.90
16271;DHT22;8243;49.048;8.396;2022-11-18T15:37:13;10.20;99.90
16271;DHT22;8243;49.048;8.396;2022-11-18T15:39:39;10.20;99.90
16271;DHT22;8243;49.048;8.396;2022-11-18T15:42:05;10.30;99.90
16271;DHT22;8243;49.048;8.396;2022-11-18T15:44:31;10.20;99.90
16271;DHT22;8243;49.048;8.396;2022-11-18T15:46:56;10.30;99.90
16271;DHT22;8243;49.048;8.396;2022-11-18T15:49:24;10.30;99.90
16271;DHT22;8243;49.048;8.396;2022-11-18T15:51:50;10.20;99.90
16271;DHT22;8243;49.048;8.396;2022-11-18T15:54:15;10.30;99.90
16271;DHT22;8243;49.048;8.396;2022-11-18T15:56:41;10.20;99.90
16271;DHT22;8243;49.048;8.396;2022-11-18T15:59:12;10.30;99.90
16271;DHT22;8243;49.048;8.396;2022-11-18T16:01:45;10.30;99.90
16271;DHT22;8243;49.048;8.396;2022-11-18T16:04:12;10.30;99.90
16271;DHT22;8243;49.048;8.396;2022-11-18T16:06:39;10.30;99.90
16271;DHT22;8243;49.048;8.396;2022-11-18T16:09:07;10.30;99.90
16271;DHT22;8243;49.048;8.396;2022-11-18T16:11:39;10.30;99.90
16271;DHT22;8243;49.048;8.396;2022-11-18T16:14:24;10.30;99.90
16271;DHT22;8243;49.048;8.396;2022-11-18T16:16:51;10.30;99.90
16271;DHT22;8243;49.048;8.396;2022-11-18T16:19:20;10.30;99.90
16271;DHT22;8243;49.048;8.396;2022-11-18T16:21:48;10.30;99.90
16271;DHT22;8243;49.048;8.396;2022-11-18T16:24:20;10.30;99.90
16271;DHT22;8243;49.048;8.396;2022-11-18T16:26:46;10.30;99.90
16271;DHT22;8243;49.048;8.396;2022-11-18T16:29:12;10.30;99.90
16271;DHT22;8243;49.048;8.396;2022-11-18T16:31:51;10.30;99.90
16271;DHT22;8243;49.048;8.396;2022-11-18T16:34:25;10.30;99.90
16271;DHT22;8243;49.048;8.396;2022-11-18T16:36:53;10.30;99.90
16271;DHT22;8243;49.048;8.396;2022-11-18T16:39:24;10.30;99.90
16271;DHT22;8243;49.048;8.396;2022-11-18T16:41:55;10.30;99.90
16271;DHT22;8243;49.048;8.396;2022-11-18T16:44:21;10.20;99.90
16271;DHT22;8243;49.048;8.396;2022-11-18T16:46:52;10.30;99.90
16271;DHT22;8243;49.048;8.396;2022-11-18T16:49:21;10.30;99.90
16271;DHT22;8243;49.048;8.396;2022-11-18T16:51:49;10.20;99.90
16271;DHT22;8243;49.048;8.396;2022-11-18T16:54:23;10.20;99.90
16271;DHT22;8243;49.048;8.396;2022-11-18T16:56:50;10.20;99.90
16271;DHT22;8243;49.048;8.396;2022-11-18T16:59:20;10.20;99.90
16271;DHT22;8243;49.048;8.396;2022-11-18T17:01:47;10.20;99.90
16271;DHT22;8243;49.048;8.396;2022-11-18T17:04:13;10.20;99.90
16271;DHT22;8243;49.048;8.396;2022-11-18T17:06:40;10.20;99.90
16271;DHT22;8243;49.048;8.396;2022-11-18T17:09:06;10.20;99.90
16271;DHT22;8243;49.048;8.396;2022-11-18T17:11:33;10.20;99.90
16271;DHT22;8243;49.048;8.396;2022-11-18T17:13:58;10.10;99.90
16271;DHT22;8243;49.048;8.396;2022-11-18T17:16:25;10.10;99.90
16271;DHT22;8243;49.048;8.396;2022-11-18T17:18:55;10.10;99.90
16271;DHT22;8243;49.048;8.396;2022-11-18T17:21:21;10.10;99.90
16271;DHT22;8243;49.048;8.396;2022-11-18T17:23:47;10.10;99.90
16271;DHT22;8243;49.048;8.396;2022-11-18T17:26:16;10.10;99.90
16271;DHT22;8243;49.048;8.396;2022-11-18T17:28:42;10.10;99.90
16271;DHT22;8243;49.048;8.396;2022-11-18T17:31:10;10.10;99.90
16271;DHT22;8243;49.048;8.396;2022-11-18T17:33:36;10.00;99.90
16271;DHT22;8243;49.048;8.396;2022-11-18T17:36:08;10.00;99.90
16271;DHT22;8243;49.048;8.396;2022-11-18T17:38:35;10.00;99.90
16271;DHT22;8243;49.048;8.396;2022-11-18T17:41:01;9.90;99.90
16271;DHT22;8243;49.048;8.396;2022-11-18T17:43:27;10.00;99.90
16271;DHT22;8243;49.048;8.396;2022-11-18T17:45:55;9.90;99.90
16271;DHT22;8243;49.048;8.396;2022-11-18T17:48:22;9.90;99.90